Time;durP1;ratioP1;P1;durP2;ratioP2;P2;SDS_P1;SDS_P2;PMS_P1;PMS_P2;Temp;Humidity;BMP_temperature;BMP_pressure;BME280_temperature;BME280_humidity;BME280_pressure;Samples;Min_cycle;Max_cycle;Signal;HPM_P1;HPM_P2
2021/07/30 00:00:43;;;;;;;4.07;2.17;;;;;;;13.93;85.79;100147.78;4894000;29;20032;-82
2021/07/30 00:03:08;;;;;;;6.45;2.55;;;;;;;13.86;85.35;100136.16;4897209;29;20032;-82
2021/07/30 00:05:34;;;;;;;5.07;2.47;;;;;;;13.92;85.63;100143.44;4877330;29;20052;-82
2021/07/30 00:08:00;;;;;;;6.47;2.30;;;;;;;13.87;85.50;100139.72;4895329;29;20028;-82
2021/07/30 00:10:25;;;;;;;7.47;2.45;;;;;;;13.87;85.42;100137.03;4879414;29;20380;-82
2021/07/30 00:12:55;;;;;;;8.38;2.85;;;;;;;13.85;85.36;100137.22;4895934;29;20916;-82
2021/07/30 00:15:23;;;;;;;8.13;2.45;;;;;;;13.90;85.62;100140.13;4895120;29;20039;-82
2021/07/30 00:17:51;;;;;;;4.25;2.35;;;;;;;13.90;85.49;100131.19;4879725;29;20457;-83
2021/07/30 00:20:16;;;;;;;6.43;2.13;;;;;;;13.92;84.98;100134.47;4896566;29;20076;-82
2021/07/30 00:22:42;;;;;;;5.50;2.75;;;;;;;13.85;85.15;100123.72;4881405;29;20032;-82
2021/07/30 00:25:08;;;;;;;7.95;2.58;;;;;;;13.86;85.22;100119.94;4890918;29;20028;-82
2021/07/30 00:27:33;;;;;;;3.80;2.70;;;;;;;13.92;85.02;100118.25;4893452;29;20071;-82
2021/07/30 00:29:58;;;;;;;4.45;2.28;;;;;;;13.95;84.88;100107.88;4881766;29;20506;-82
2021/07/30 00:32:24;;;;;;;6.07;2.35;;;;;;;13.95;84.08;100123.28;4882946;29;20036;-82
2021/07/30 00:34:49;;;;;;;7.20;2.42;;;;;;;13.92;84.46;100116.41;4897291;29;20028;-85
2021/07/30 00:37:14;;;;;;;4.50;2.58;;;;;;;13.88;84.40;100111.66;4883536;29;20036;-84
2021/07/30 00:39:40;;;;;;;4.85;2.90;;;;;;;13.90;84.15;100125.78;4882029;29;20406;-84
2021/07/30 00:42:05;;;;;;;7.38;3.60;;;;;;;13.87;84.09;100123.50;4877511;29;20033;-84
2021/07/30 00:44:31;;;;;;;4.88;2.45;;;;;;;13.94;84.14;100138.63;4883795;29;20082;-84
2021/07/30 00:46:58;;;;;;;7.00;2.67;;;;;;;13.99;84.04;100148.81;4880474;29;20034;-84
2021/07/30 00:49:23;;;;;;;7.07;2.72;;;;;;;13.95;84.26;100153.81;4881012;29;20184;-84
2021/07/30 00:51:50;;;;;;;6.88;2.92;;;;;;;13.88;84.49;100144.91;4892937;29;20040;-83
2021/07/30 00:54:16;;;;;;;6.90;2.97;;;;;;;13.80;84.84;100143.25;4879958;29;20028;-85
2021/07/30 00:56:42;;;;;;;6.88;2.65;;;;;;;13.84;85.26;100149.09;4880071;29;20036;-85
2021/07/30 00:59:09;;;;;;;5.80;2.58;;;;;;;13.59;85.21;100103.00;4879566;29;20035;-85
2021/07/30 01:01:34;;;;;;;4.82;2.53;;;;;;;13.83;85.37;100140.13;4882555;29;20164;-82
2021/07/30 01:04:02;;;;;;;5.43;3.50;;;;;;;13.80;85.48;100139.72;4895170;29;20087;-83
2021/07/30 01:06:28;;;;;;;7.10;2.80;;;;;;;13.83;84.96;100134.72;4895801;29;20169;-84
2021/07/30 01:08:53;;;;;;;5.70;2.75;;;;;;;13.83;84.73;100140.13;4879392;29;20115;-84
2021/07/30 01:11:19;;;;;;;6.63;2.65;;;;;;;13.66;84.64;100109.22;4881121;29;20477;-84
2021/07/30 01:13:44;;;;;;;4.53;2.35;;;;;;;13.74;85.01;100118.97;4881290;29;20040;-84
2021/07/30 01:16:10;;;;;;;4.70;2.50;;;;;;;13.72;85.01;100123.75;4892985;29;20032;-84
2021/07/30 01:18:35;;;;;;;6.75;2.30;;;;;;;13.75;85.31;100132.25;4876689;29;20025;-83
2021/07/30 01:21:30;;;;;;;8.45;2.95;;;;;;;13.78;85.38;100141.81;4881285;29;20041;-84
2021/07/30 01:23:55;;;;;;;3.97;2.35;;;;;;;13.72;85.59;100132.69;4906576;29;20416;-83
2021/07/30 01:26:21;;;;;;;4.88;2.65;;;;;;;13.74;85.59;100132.47;4880766;29;20020;-84
2021/07/30 01:28:47;;;;;;;3.97;2.58;;;;;;;13.74;85.49;100137.88;4892206;29;20501;-84
2021/07/30 01:31:12;;;;;;;5.55;2.70;;;;;;;13.77;85.45;100137.44;4873556;29;20044;-84
2021/07/30 01:33:38;;;;;;;6.30;2.67;;;;;;;13.81;85.61;100139.53;4896682;29;20028;-84
2021/07/30 01:36:03;;;;;;;4.22;2.67;;;;;;;13.80;85.67;100137.84;4883056;29;20032;-84
2021/07/30 01:38:29;;;;;;;4.25;2.83;;;;;;;13.80;85.83;100134.31;4895511;29;20031;-84
2021/07/30 01:41:08;;;;;;;7.28;2.65;;;;;;;13.85;85.58;100140.75;4894034;29;20044;-84
2021/07/30 01:43:38;;;;;;;5.85;2.60;;;;;;;13.86;85.71;100136.16;4895150;29;20103;-84
2021/07/30 01:46:03;;;;;;;5.18;2.85;;;;;;;13.91;85.07;100141.75;4881204;29;20039;-83
2021/07/30 01:48:29;;;;;;;5.28;2.80;;;;;;;13.86;85.50;100138.88;4894253;29;20039;-84
2021/07/30 01:50:54;;;;;;;4.97;2.88;;;;;;;13.90;85.55;100145.53;4909067;29;20035;-84
2021/07/30 01:53:20;;;;;;;5.05;2.80;;;;;;;13.88;85.58;100138.66;4886362;29;20070;-84
2021/07/30 01:55:45;;;;;;;6.95;2.45;;;;;;;13.90;85.68;100148.22;4881248;29;20028;-84
2021/07/30 01:58:12;;;;;;;4.97;2.42;;;;;;;13.83;86.35;100144.69;4892630;29;20047;-84
2021/07/30 02:00:37;;;;;;;4.93;2.80;;;;;;;13.81;86.88;100146.78;4893515;29;20448;-83
2021/07/30 02:03:03;;;;;;;5.55;2.42;;;;;;;13.79;87.08;100143.47;4880891;29;20114;-83
2021/07/30 02:05:28;;;;;;;5.88;2.30;;;;;;;13.60;87.64;100110.03;4880606;29;20028;-84
2021/07/30 02:07:53;;;;;;;3.83;2.13;;;;;;;13.69;87.54;100130.41;4895279;29;20024;-84
2021/07/30 02:10:19;;;;;;;6.38;2.25;;;;;;;13.79;87.69;100147.00;4879981;29;20773;-84
2021/07/30 02:15:28;;;;;;;5.72;2.10;;;;;;;13.78;87.78;100139.09;4910538;29;20050;-84
2021/07/30 02:17:54;;;;;;;4.97;2.33;;;;;;;13.61;87.49;100117.94;4893692;29;21969;-84
2021/07/30 02:20:19;;;;;;;8.05;2.55;;;;;;;13.74;87.65;100144.09;4875972;29;20039;-84
2021/07/30 02:22:45;;;;;;;5.47;2.55;;;;;;;13.66;88.24;100130.00;4895025;29;20036;-84
2021/07/30 02:25:11;;;;;;;4.00;2.20;;;;;;;13.72;88.50;100143.47;4881463;29;20032;-84
2021/07/30 02:27:36;;;;;;;5.75;1.92;;;;;;;13.68;88.83;100147.66;4894586;29;20518;-83
2021/07/30 02:30:02;;;;;;;4.68;1.95;;;;;;;13.58;89.07;100131.88;4893795;29;20111;-83
2021/07/30 02:32:27;;;;;;;7.35;2.50;;;;;;;13.55;89.45;100132.31;4880297;29;20050;-83
2021/07/30 02:34:53;;;;;;;8.27;2.50;;;;;;;13.57;89.67;100132.91;4882224;29;20489;-83
2021/07/30 02:37:18;;;;;;;3.63;1.98;;;;;;;13.61;89.73;100134.16;4876931;29;20031;-83
2021/07/30 02:39:44;;;;;;;6.35;3.10;;;;;;;13.56;89.72;100127.72;4896005;29;20028;-83
2021/07/30 02:42:09;;;;;;;4.43;2.15;;;;;;;13.54;90.35;100119.81;4891086;29;20499;-83
2021/07/30 02:44:34;;;;;;;5.18;2.40;;;;;;;13.65;89.92;100134.56;4882244;29;20044;-83
2021/07/30 02:47:00;;;;;;;6.32;2.33;;;;;;;13.65;90.08;100129.16;4895500;29;20100;-83
2021/07/30 02:49:25;;;;;;;5.97;2.17;;;;;;;13.61;90.11;100120.66;4894462;29;20425;-83
2021/07/30 02:51:51;;;;;;;5.22;2.20;;;;;;;13.70;90.35;100133.94;4881734;29;20028;-83
2021/07/30 02:54:16;;;;;;;5.97;2.50;;;;;;;13.69;90.24;100135.81;4897853;29;20036;-83
2021/07/30 02:56:41;;;;;;;9.27;2.30;;;;;;;13.67;90.31;100132.47;4897516;29;20032;-83
2021/07/30 02:59:07;;;;;;;5.13;2.20;;;;;;;13.67;90.44;100132.47;4893380;29;20481;-83
2021/07/30 03:01:32;;;;;;;5.65;2.15;;;;;;;13.62;90.05;100127.69;4895007;29;20032;-83
2021/07/30 03:03:58;;;;;;;7.00;3.50;;;;;;;13.41;90.20;100115.28;4894418;29;20146;-83
2021/07/30 03:06:23;;;;;;;5.53;2.45;;;;;;;13.62;90.25;100140.38;4882899;29;20039;-83
2021/07/30 03:08:48;;;;;;;5.50;2.38;;;;;;;13.60;90.12;100131.66;4881112;29;20039;-83
2021/07/30 03:11:14;;;;;;;4.47;2.83;;;;;;;13.55;90.01;100121.50;4880854;29;20043;-83
2021/07/30 03:13:40;;;;;;;5.15;2.42;;;;;;;13.73;89.77;100142.44;4878278;29;20032;-83
2021/07/30 03:16:06;;;;;;;5.03;2.40;;;;;;;13.74;89.87;100137.88;4879585;29;20024;-84
2021/07/30 03:18:32;;;;;;;6.43;2.90;;;;;;;13.65;90.05;100126.44;4893449;29;20425;-83
2021/07/30 03:20:58;;;;;;;5.90;2.65;;;;;;;13.70;90.30;100137.47;4879845;29;20504;-83
2021/07/30 03:23:23;;;;;;;4.57;2.45;;;;;;;13.69;90.10;100135.81;4893530;29;20115;-83
2021/07/30 03:25:49;;;;;;;6.82;3.08;;;;;;;13.66;90.15;100130.00;4876973;29;20044;-83
2021/07/30 03:28:14;;;;;;;8.57;2.60;;;;;;;13.72;90.12;100142.66;4895003;29;20060;-83
2021/07/30 03:30:40;;;;;;;5.40;2.80;;;;;;;13.71;89.76;100138.31;4879992;29;20036;-83
2021/07/30 03:33:05;;;;;;;5.82;3.10;;;;;;;13.73;89.80;100142.44;4892454;29;20066;-83
2021/07/30 03:35:30;;;;;;;4.30;2.58;;;;;;;13.75;90.05;100144.94;4896931;29;20083;-84
2021/07/30 03:37:56;;;;;;;7.07;2.70;;;;;;;13.69;90.27;100143.09;4893931;29;20040;-83
2021/07/30 03:40:22;;;;;;;5.95;2.78;;;;;;;13.69;90.14;100145.78;4879168;29;20039;-84
2021/07/30 03:42:47;;;;;;;6.40;2.58;;;;;;;13.72;90.46;100139.97;4912039;29;20400;-83
2021/07/30 03:45:13;;;;;;;8.88;2.63;;;;;;;13.70;90.20;100142.84;4889566;29;20405;-83
2021/07/30 03:47:38;;;;;;;6.45;2.50;;;;;;;13.72;89.92;100145.34;4882780;29;20070;-83
2021/07/30 03:50:04;;;;;;;5.13;2.88;;;;;;;13.73;90.05;100147.84;4911242;29;20035;-83
2021/07/30 03:52:29;;;;;;;5.78;2.47;;;;;;;13.66;90.05;100130.84;4894151;29;20591;-83
2021/07/30 03:54:55;;;;;;;7.57;2.67;;;;;;;13.68;90.20;100142.25;4897754;29;20028;-83
2021/07/30 03:57:20;;;;;;;6.30;2.50;;;;;;;13.74;90.33;100154.09;4882265;29;20063;-83
2021/07/30 03:59:45;;;;;;;5.15;3.13;;;;;;;13.74;90.33;100154.91;4881254;29;20031;-83
2021/07/30 04:02:12;;;;;;;4.57;2.50;;;;;;;13.69;90.18;100145.78;4886959;29;20080;-83
2021/07/30 04:04:38;;;;;;;4.80;2.75;;;;;;;13.71;90.04;100154.53;4881615;29;20139;-84
2021/07/30 04:07:03;;;;;;;6.13;2.75;;;;;;;13.68;90.26;100147.66;4879466;29;20103;-83
2021/07/30 04:09:29;;;;;;;7.50;2.80;;;;;;;13.72;90.37;100143.47;4915599;29;20108;-83
2021/07/30 04:11:54;;;;;;;5.03;2.78;;;;;;;13.69;90.58;100143.91;4883025;29;20024;-83
2021/07/30 04:14:20;;;;;;;6.03;2.60;;;;;;;13.69;90.38;100143.91;4907622;29;20025;-83
2021/07/30 04:16:45;;;;;;;5.60;2.70;;;;;;;13.66;90.62;100136.22;4912041;29;20312;-83
2021/07/30 04:19:11;;;;;;;6.68;3.05;;;;;;;13.71;90.36;100144.53;4896417;29;20020;-83
2021/07/30 04:21:39;;;;;;;5.53;2.55;;;;;;;13.69;90.81;100143.09;4895559;29;20047;-83
2021/07/30 04:24:05;;;;;;;5.30;2.83;;;;;;;13.58;90.51;100126.47;4896613;29;21338;-83
2021/07/30 04:26:31;;;;;;;6.05;2.67;;;;;;;13.70;90.41;100150.13;4891831;29;20798;-83
2021/07/30 04:28:56;;;;;;;4.93;2.33;;;;;;;13.71;90.65;100149.94;4880172;29;20374;-83
2021/07/30 04:31:22;;;;;;;6.20;3.00;;;;;;;13.73;90.49;100153.25;4895573;29;20123;-83
2021/07/30 04:33:47;;;;;;;6.35;2.83;;;;;;;13.69;90.92;100149.31;4895872;29;20024;-83
2021/07/30 04:36:14;;;;;;;5.63;2.80;;;;;;;13.75;89.96;100155.75;4892879;29;20066;-83
2021/07/30 04:38:40;;;;;;;3.85;1.98;;;;;;;13.72;90.30;100150.75;4897967;29;20020;-83
2021/07/30 04:41:06;;;;;;;6.10;2.42;;;;;;;13.71;90.55;100146.41;4895668;29;20386;-83
2021/07/30 04:43:32;;;;;;;6.78;2.83;;;;;;;13.76;90.58;100157.38;4894990;29;20037;-83
2021/07/30 04:45:57;;;;;;;5.15;2.30;;;;;;;13.78;90.84;100160.72;4886581;29;20043;-83
2021/07/30 04:48:23;;;;;;;6.10;2.28;;;;;;;13.79;90.34;100167.81;4899087;29;20075;-83
2021/07/30 04:50:48;;;;;;;5.43;2.50;;;;;;;13.76;90.15;100157.38;4894414;29;20540;-83
2021/07/30 04:53:13;;;;;;;5.70;2.10;;;;;;;13.66;89.80;100149.75;4895931;29;20024;-83
2021/07/30 04:55:39;;;;;;;7.57;2.42;;;;;;;13.72;89.86;100159.69;4884439;29;20123;-83
2021/07/30 04:58:04;;;;;;;5.60;2.17;;;;;;;13.57;89.35;100142.88;4882679;29;20105;-84
2021/07/30 05:00:30;;;;;;;4.40;2.10;;;;;;;13.61;89.50;100161.16;4895787;29;20119;-83
2021/07/30 05:02:55;;;;;;;5.00;2.20;;;;;;;13.61;89.23;100166.56;4898575;29;20027;-83
2021/07/30 05:05:21;;;;;;;4.70;1.83;;;;;;;13.52;89.74;100162.44;4899063;29;20040;-83
2021/07/30 05:07:46;;;;;;;5.55;1.98;;;;;;;13.53;89.81;100176.78;4898324;29;20042;-83
2021/07/30 05:10:11;;;;;;;4.70;2.00;;;;;;;13.50;89.73;100175.31;4898961;29;20044;-83
2021/07/30 05:12:37;;;;;;;5.45;2.17;;;;;;;13.49;90.16;100173.63;4898177;29;20492;-83
2021/07/30 05:15:04;;;;;;;3.95;2.00;;;;;;;13.51;90.43;100173.44;4902278;29;20039;-83
2021/07/30 05:17:29;;;;;;;4.72;2.17;;;;;;;13.49;90.16;100170.13;4909060;29;20028;-83
2021/07/30 05:19:55;;;;;;;4.18;2.00;;;;;;;13.54;90.00;100175.72;4878928;29;20384;-84
2021/07/30 05:22:20;;;;;;;3.97;2.03;;;;;;;13.51;89.62;100165.34;4895897;29;20036;-82
2021/07/30 05:24:45;;;;;;;4.18;2.30;;;;;;;13.45;89.87;100169.72;4880726;29;20064;-85
2021/07/30 05:27:11;;;;;;;2.97;1.70;;;;;;;13.45;89.67;100177.00;4879553;29;20111;-82
2021/07/30 05:29:36;;;;;;;5.15;2.40;;;;;;;13.48;89.67;100180.09;4879908;29;20024;-84
2021/07/30 05:32:02;;;;;;;4.03;2.25;;;;;;;13.48;89.84;100188.19;4892551;29;20034;-84
2021/07/30 05:34:27;;;;;;;6.70;2.22;;;;;;;13.47;89.89;100181.16;4879643;29;20033;-83
2021/07/30 05:36:53;;;;;;;6.95;2.70;;;;;;;13.46;90.15;100184.03;4875071;29;20044;-82
2021/07/30 05:39:18;;;;;;;8.05;2.47;;;;;;;13.40;89.96;100180.31;4874839;29;20039;-83
2021/07/30 05:41:44;;;;;;;7.30;2.78;;;;;;;13.47;90.32;100191.94;4877530;29;20047;-85
2021/07/30 05:44:09;;;;;;;4.78;2.08;;;;;;;13.35;90.21;100167.44;4870794;29;20032;-81
2021/07/30 05:46:38;;;;;;;7.43;2.50;;;;;;;13.49;90.56;100195.25;4878216;29;20485;-84
2021/07/30 05:49:03;;;;;;;11.13;4.90;;;;;;;13.45;90.45;100180.50;4877127;29;20080;-84
2021/07/30 05:51:29;;;;;;;6.60;2.20;;;;;;;13.52;89.96;100192.16;4893523;29;20047;-82
2021/07/30 05:53:54;;;;;;;4.47;2.13;;;;;;;13.52;90.42;100192.16;4878115;29;20051;-83
2021/07/30 05:56:19;;;;;;;5.80;2.22;;;;;;;13.61;90.33;100193.59;4890915;29;20050;-83
2021/07/30 05:58:45;;;;;;;8.18;2.53;;;;;;;13.62;89.76;100187.13;4873775;29;20472;-83
2021/07/30 06:01:12;;;;;;;5.65;2.78;;;;;;;13.66;89.58;100189.44;4878518;29;20033;-84
2021/07/30 06:03:38;;;;;;;5.50;2.40;;;;;;;13.67;89.65;100188.38;4892462;29;20083;-82
2021/07/30 06:06:03;;;;;;;11.20;2.15;;;;;;;13.72;89.33;100194.81;4881522;29;20035;-83
2021/07/30 06:08:28;;;;;;;5.78;2.03;;;;;;;13.71;89.67;100212.09;4875364;29;20035;-83
2021/07/30 06:10:54;;;;;;;4.20;1.85;;;;;;;13.69;89.68;100205.22;4915252;29;20032;-83
2021/07/30 06:13:19;;;;;;;6.47;2.15;;;;;;;13.76;89.39;100211.44;4881491;29;20172;-84
2021/07/30 06:15:45;;;;;;;5.07;2.00;;;;;;;13.81;89.00;100208.94;4899059;29;20040;-83
2021/07/30 06:18:10;;;;;;;5.80;2.63;;;;;;;13.81;89.21;100208.94;4898384;29;20432;-83
2021/07/30 06:20:35;;;;;;;6.53;2.45;;;;;;;13.84;89.02;100209.34;4911472;29;20027;-83
2021/07/30 06:23:01;;;;;;;3.90;2.03;;;;;;;13.86;89.29;100211.84;4880881;29;20028;-83
2021/07/30 06:25:26;;;;;;;3.70;2.00;;;;;;;13.83;89.50;100206.84;4881904;29;20032;-83
2021/07/30 06:27:52;;;;;;;5.57;1.85;;;;;;;13.84;89.48;100213.94;4879404;29;20028;-83
2021/07/30 06:30:17;;;;;;;4.15;2.13;;;;;;;13.80;89.36;100202.69;4894813;29;20036;-83
2021/07/30 06:32:43;;;;;;;6.43;2.00;;;;;;;13.77;89.84;100199.59;4881103;29;20036;-84
2021/07/30 06:35:09;;;;;;;7.10;2.17;;;;;;;13.87;89.99;100204.59;4878816;29;20028;-83
2021/07/30 06:37:36;;;;;;;3.67;2.00;;;;;;;13.90;89.62;100201.44;4880591;29;20032;-84
2021/07/30 06:40:02;;;;;;;4.60;2.28;;;;;;;13.91;89.53;100203.09;4896109;29;20028;-84
2021/07/30 06:42:28;;;;;;;5.57;1.83;;;;;;;13.94;89.51;100208.91;4884285;29;20032;-84
2021/07/30 06:44:54;;;;;;;7.80;2.15;;;;;;;13.95;89.86;100207.88;4887772;29;20560;-83
2021/07/30 06:47:21;;;;;;;7.20;2.20;;;;;;;13.92;89.69;100199.34;4878669;29;20028;-83
2021/07/30 06:49:47;;;;;;;6.15;2.15;;;;;;;13.98;89.43;100218.25;4898513;29;20153;-82
2021/07/30 06:52:12;;;;;;;5.85;2.25;;;;;;;13.97;89.97;100210.34;4882281;29;20063;-84
2021/07/30 06:54:38;;;;;;;3.42;1.80;;;;;;;13.90;89.70;100202.28;4878479;29;20047;-84
2021/07/30 06:57:04;;;;;;;5.38;1.73;;;;;;;13.93;89.54;100212.66;4894524;29;20032;-85
2021/07/30 06:59:29;;;;;;;6.53;1.95;;;;;;;13.98;89.66;100222.84;4875246;29;20074;-86
2021/07/30 07:01:55;;;;;;;5.13;2.30;;;;;;;13.94;89.93;100208.91;4876341;29;20793;-84
2021/07/30 07:04:20;;;;;;;5.97;2.00;;;;;;;14.03;89.69;100220.34;4889841;29;20556;-84
2021/07/30 07:06:47;;;;;;;6.88;2.22;;;;;;;14.05;89.81;100216.38;4872553;29;20036;-84
2021/07/30 07:09:16;;;;;;;6.65;1.90;;;;;;;14.14;89.82;100221.56;4876698;29;20059;-83
2021/07/30 07:11:41;;;;;;;7.18;1.77;;;;;;;14.18;89.40;100225.47;4876471;29;20055;-83
2021/07/30 07:14:07;;;;;;;3.88;1.50;;;;;;;14.26;89.55;100238.78;4891131;29;20020;-83
2021/07/30 07:16:33;;;;;;;3.85;2.25;;;;;;;14.27;89.69;100224.22;4892494;29;20036;-82
2021/07/30 07:18:58;;;;;;;6.88;2.00;;;;;;;14.34;89.87;100233.13;4894298;29;20035;-84
2021/07/30 07:21:24;;;;;;;4.32;2.17;;;;;;;14.38;89.48;100231.66;4893126;29;20059;-80
2021/07/30 07:23:50;;;;;;;5.60;1.60;;;;;;;14.42;89.45;100226.66;4890487;29;20336;-83
2021/07/30 07:26:16;;;;;;;5.28;1.55;;;;;;;14.45;88.99;100237.88;4901485;29;20036;-84
2021/07/30 07:28:42;;;;;;;5.43;2.08;;;;;;;14.47;89.00;100235.81;4889650;29;20031;-83
2021/07/30 07:31:07;;;;;;;4.03;1.48;;;;;;;14.49;89.16;100233.69;4879617;29;20035;-83
2021/07/30 07:33:33;;;;;;;3.28;1.30;;;;;;;14.54;89.15;100232.25;4883067;29;20039;-83
2021/07/30 07:35:58;;;;;;;3.53;0.90;;;;;;;14.57;88.98;100235.38;4898721;29;20032;-84
2021/07/30 07:38:24;;;;;;;2.83;1.10;;;;;;;14.60;89.20;100242.22;4883191;29;20505;-83
2021/07/30 07:40:49;;;;;;;3.15;1.20;;;;;;;14.61;89.12;100231.19;4882980;29;20028;-83
2021/07/30 07:43:15;;;;;;;3.47;1.20;;;;;;;14.64;88.89;100238.06;4880541;29;20477;-83
2021/07/30 07:45:41;;;;;;;2.35;0.80;;;;;;;14.69;89.28;100243.66;4883171;29;20039;-83
2021/07/30 07:48:07;;;;;;;2.17;0.70;;;;;;;14.67;89.64;100256.56;4879593;29;20576;-83
2021/07/30 07:50:32;;;;;;;2.40;0.90;;;;;;;14.66;89.82;100254.88;4908415;29;20168;-84
2021/07/30 07:52:57;;;;;;;1.67;0.70;;;;;;;14.59;90.10;100243.28;4877954;29;20028;-84
2021/07/30 07:55:23;;;;;;;1.58;0.60;;;;;;;14.62;90.33;100253.66;4876582;29;20430;-82
2021/07/30 07:57:48;;;;;;;2.65;0.90;;;;;;;14.67;90.70;100259.25;4894830;29;20042;-84
2021/07/30 08:00:14;;;;;;;0.60;0.60;;;;;;;14.70;90.71;100264.25;4878991;29;20028;-83
2021/07/30 08:02:39;;;;;;;1.10;0.60;;;;;;;14.68;90.59;100255.50;4881225;29;20024;-82
2021/07/30 08:05:05;;;;;;;0.75;0.50;;;;;;;14.67;90.75;100261.97;4896748;29;20071;-83
2021/07/30 08:07:31;;;;;;;1.48;0.60;;;;;;;14.70;90.78;100275.06;4877416;29;20502;-83
2021/07/30 08:09:56;;;;;;;0.73;0.50;;;;;;;14.67;91.15;100270.09;4873416;29;20025;-82
2021/07/30 08:12:22;;;;;;;0.52;0.40;;;;;;;14.69;91.13;100271.53;4879940;29;20024;-83
2021/07/30 08:14:48;;;;;;;0.30;0.30;;;;;;;14.69;91.14;100276.13;4876490;29;20036;-83
2021/07/30 08:17:14;;;;;;;0.95;0.50;;;;;;;14.66;91.30;100271.13;4880853;29;20028;-82
2021/07/30 08:19:40;;;;;;;0.40;0.40;;;;;;;14.63;91.69;100272.41;4885236;29;20605;-83
2021/07/30 08:22:07;;;;;;;0.57;0.50;;;;;;;14.63;91.45;100276.97;4900981;29;20032;-83
2021/07/30 08:24:32;;;;;;;0.70;0.50;;;;;;;14.58;91.26;100271.34;4899716;29;20032;-83
2021/07/30 08:26:58;;;;;;;0.85;0.50;;;;;;;14.68;91.35;100285.28;4886293;29;20376;-84
2021/07/30 08:29:23;;;;;;;0.80;0.60;;;;;;;14.69;91.18;100278.81;4882561;29;20464;-82
2021/07/30 08:31:49;;;;;;;1.20;0.80;;;;;;;14.76;91.17;100287.72;4885714;29;20026;-82
2021/07/30 08:34:15;;;;;;;1.92;0.50;;;;;;;14.78;91.33;100282.94;4881885;29;20040;-83
2021/07/30 08:36:42;;;;;;;0.85;0.73;;;;;;;14.76;91.13;100281.50;4894237;29;20128;-82
2021/07/30 08:39:08;;;;;;;1.98;0.60;;;;;;;14.84;90.95;100297.47;4900847;29;20576;-82
2021/07/30 08:41:35;;;;;;;1.95;0.60;;;;;;;14.81;90.82;100290.63;4882569;29;20119;-82
2021/07/30 08:44:00;;;;;;;1.67;0.63;;;;;;;14.85;91.09;100300.00;4871262;29;20020;-82
2021/07/30 08:46:27;;;;;;;0.88;0.55;;;;;;;14.88;90.85;100301.44;4885769;29;20025;-82
2021/07/30 08:48:54;;;;;;;0.65;0.50;;;;;;;14.96;90.89;100303.91;4878572;29;20040;-83
2021/07/30 08:51:21;;;;;;;1.00;0.55;;;;;;;15.01;90.66;100306.78;4885203;29;20488;-82
2021/07/30 08:53:47;;;;;;;0.85;0.60;;;;;;;15.05;90.69;100297.16;4900472;29;20048;-85
2021/07/30 08:56:13;;;;;;;0.63;0.50;;;;;;;15.13;90.58;100304.22;4882282;29;20031;-82
2021/07/30 08:58:39;;;;;;;0.98;0.60;;;;;;;15.18;90.21;100301.69;4897323;29;20024;-82
2021/07/30 09:01:05;;;;;;;1.40;0.60;;;;;;;15.16;89.77;100303.78;4900519;29;20035;-82
2021/07/30 09:03:40;;;;;;;0.90;0.55;;;;;;;15.20;89.31;100306.91;4882646;29;20051;-82
2021/07/30 09:06:12;;;;;;;0.47;0.40;;;;;;;15.24;89.37;100305.41;4875695;29;20024;-83
2021/07/30 09:08:38;;;;;;;0.93;0.52;;;;;;;15.18;89.49;100309.81;4881089;29;20025;-84
2021/07/30 09:11:03;;;;;;;1.75;0.80;;;;;;;15.11;89.34;100295.47;4881758;29;20032;-83
2021/07/30 09:13:29;;;;;;;3.17;1.40;;;;;;;15.06;89.10;100304.25;4900989;29;20036;-82
2021/07/30 09:15:58;;;;;;;3.00;1.85;;;;;;;15.15;88.77;100319.19;4884983;29;20028;-82
2021/07/30 09:18:35;;;;;;;2.25;1.35;;;;;;;15.15;89.09;100323.78;4900531;29;20032;-84
2021/07/30 09:21:30;;;;;;;3.58;1.92;;;;;;;15.09;89.13;100325.50;4900335;29;20032;-82
2021/07/30 09:23:55;;;;;;;1.33;0.80;;;;;;;15.04;89.41;100327.19;4897345;29;20083;-82
2021/07/30 09:26:48;;;;;;;1.75;0.80;;;;;;;15.00;89.82;100324.06;4900500;29;20401;-82
2021/07/30 09:29:21;;;;;;;4.60;1.52;;;;;;;15.02;89.76;100324.69;4889851;29;20123;-82
2021/07/30 09:31:54;;;;;;;2.53;0.80;;;;;;;15.13;89.52;100342.13;4896794;29;20028;-84
2021/07/30 09:34:35;;;;;;;2.92;1.23;;;;;;;15.22;89.41;100342.72;4879178;29;20039;-81
2021/07/30 09:37:12;;;;;;;2.05;0.90;;;;;;;15.23;88.96;100337.06;4883077;29;20039;-84
2021/07/30 09:39:46;;;;;;;1.75;1.08;;;;;;;15.30;88.43;100339.75;4898907;29;20051;-83
2021/07/30 09:42:13;;;;;;;2.53;0.80;;;;;;;15.27;88.55;100334.75;4873081;29;20119;-83
2021/07/30 09:44:42;;;;;;;1.92;0.80;;;;;;;15.28;88.40;100337.25;4884580;29;20036;-84
2021/07/30 09:47:11;;;;;;;2.60;0.75;;;;;;;15.26;88.57;100341.22;4917592;29;20032;-82
2021/07/30 09:49:47;;;;;;;3.92;0.82;;;;;;;15.18;88.63;100334.19;4897712;29;20043;-83
2021/07/30 09:52:17;;;;;;;2.53;0.90;;;;;;;15.21;88.76;100336.44;4918027;29;20091;-83
2021/07/30 09:54:44;;;;;;;2.13;0.95;;;;;;;15.23;88.68;100347.09;4900756;29;20036;-82
2021/07/30 09:57:11;;;;;;;3.90;2.10;;;;;;;15.20;88.81;100342.09;4923579;29;20389;-82
2021/07/30 09:59:43;;;;;;;4.65;1.33;;;;;;;15.26;89.03;100349.34;4901959;29;20028;-82
2021/07/30 10:02:17;;;;;;;9.25;2.13;;;;;;;15.26;88.81;100349.34;4890904;29;20060;-84
2021/07/30 10:04:45;;;;;;;7.35;1.98;;;;;;;15.31;88.77;100350.34;4896059;29;20412;-84
2021/07/30 10:07:16;;;;;;;6.43;2.50;;;;;;;15.36;88.48;100363.25;4874031;29;20103;-84
2021/07/30 10:09:48;;;;;;;8.27;2.38;;;;;;;15.43;88.41;100364.06;4897351;29;20027;-83
2021/07/30 10:12:15;;;;;;;7.80;2.15;;;;;;;15.43;88.22;100346.94;4880402;29;20035;-84
2021/07/30 10:14:41;;;;;;;4.43;1.83;;;;;;;15.42;88.15;100348.00;4879919;29;20397;-85
2021/07/30 10:17:07;;;;;;;4.18;2.08;;;;;;;15.58;88.21;100364.56;4874294;29;20023;-84
2021/07/30 10:19:35;;;;;;;5.38;1.88;;;;;;;15.61;87.96;100366.00;4881385;29;20031;-82
2021/07/30 10:22:04;;;;;;;4.90;1.63;;;;;;;15.64;87.69;100354.75;4891591;29;20381;-81
2021/07/30 10:24:39;;;;;;;7.50;2.00;;;;;;;15.72;87.65;100354.53;4871753;29;20070;-85
2021/07/30 10:27:05;;;;;;;5.72;2.38;;;;;;;15.81;87.28;100358.63;4892700;29;20044;-84
2021/07/30 10:30:03;;;;;;;6.38;2.08;;;;;;;15.79;87.24;100362.59;4881861;29;20062;-84
2021/07/30 10:32:49;;;;;;;7.25;2.47;;;;;;;15.70;86.81;100356.63;4894252;29;20028;-82
2021/07/30 10:35:16;;;;;;;8.75;2.42;;;;;;;15.68;86.83;100366.00;4879699;29;20031;-83
2021/07/30 10:37:42;;;;;;;5.18;2.00;;;;;;;15.70;86.60;100367.47;4877342;29;20036;-82
2021/07/30 10:40:27;;;;;;;7.60;2.40;;;;;;;15.78;86.28;100366.38;4882798;29;20020;-84
2021/07/30 10:43:09;;;;;;;7.20;2.75;;;;;;;15.88;86.25;100363.16;4881111;29;20032;-82
2021/07/30 10:45:38;;;;;;;6.55;2.47;;;;;;;15.97;85.85;100370.81;4888582;29;20115;-81
2021/07/30 10:48:22;;;;;;;6.68;2.20;;;;;;;16.05;86.28;100372.41;4890996;29;20028;-84
2021/07/30 10:51:05;;;;;;;6.88;2.50;;;;;;;16.11;86.02;100371.50;4897190;29;20124;-83
2021/07/30 10:53:30;;;;;;;6.15;2.40;;;;;;;16.15;85.31;100372.75;4884418;29;20039;-83
2021/07/30 10:55:59;;;;;;;7.95;2.47;;;;;;;16.07;84.78;100364.88;4913905;29;20028;-84
2021/07/30 10:58:40;;;;;;;8.10;2.70;;;;;;;16.16;84.32;100379.00;4878896;29;20071;-82
2021/07/30 11:01:06;;;;;;;10.45;2.85;;;;;;;16.32;84.19;100372.19;4907612;29;20024;-82
2021/07/30 11:03:52;;;;;;;7.03;2.58;;;;;;;16.44;83.43;100375.81;4881326;29;20016;-83
2021/07/30 11:06:21;;;;;;;8.50;2.88;;;;;;;16.48;82.54;100379.72;4885611;29;20036;-81
2021/07/30 11:11:46;;;;;;;6.22;2.42;;;;;;;16.65;82.98;100380.81;4908654;29;20032;-82
2021/07/30 11:14:31;;;;;;;5.22;2.28;;;;;;;16.77;82.69;100375.50;4895758;29;20023;-85
2021/07/30 11:17:06;;;;;;;6.60;2.80;;;;;;;16.87;82.53;100375.81;4886468;29;20046;-83
2021/07/30 11:19:33;;;;;;;7.07;2.30;;;;;;;16.95;81.80;100371.94;4897312;29;20024;-84
2021/07/30 11:22:02;;;;;;;5.97;2.40;;;;;;;16.98;81.57;100386.97;4897646;29;20048;-82
2021/07/30 11:24:28;;;;;;;5.75;2.33;;;;;;;16.82;79.71;100378.38;4880312;29;20040;-83
2021/07/30 11:26:53;;;;;;;5.05;2.47;;;;;;;16.69;79.99;100382.00;4880307;29;20032;-85
2021/07/30 11:29:20;;;;;;;6.15;2.80;;;;;;;16.67;80.01;100375.16;4897448;29;20083;-84